sensor_id;sensor_type;location;lat;lon;timestamp;temperature;humidity
23010;DHT22;11671;49.990;8.028;2023-06-04T00:02:17;16.90;98.00
23010;DHT22;11671;49.990;8.028;2023-06-04T00:04:43;16.90;98.40
23010;DHT22;11671;49.990;8.028;2023-06-04T00:07:09;16.90;98.30
23010;DHT22;11671;49.990;8.028;2023-06-04T00:09:34;16.90;99.10
23010;DHT22;11671;49.990;8.028;2023-06-04T00:12:00;16.80;99.10
23010;DHT22;11671;49.990;8.028;2023-06-04T00:14:25;16.80;99.10
23010;DHT22;11671;49.990;8.028;2023-06-04T00:16:51;16.80;98.90
23010;DHT22;11671;49.990;8.028;2023-06-04T00:19:17;16.70;99.50
23010;DHT22;11671;49.990;8.028;2023-06-04T00:21:43;16.70;99.50
23010;DHT22;11671;49.990;8.028;2023-06-04T00:24:08;16.70;99.80
23010;DHT22;11671;49.990;8.028;2023-06-04T00:26:34;16.70;99.90
23010;DHT22;11671;49.990;8.028;2023-06-04T00:29:00;16.60;99.90
23010;DHT22;11671;49.990;8.028;2023-06-04T00:31:25;16.50;99.90
23010;DHT22;11671;49.990;8.028;2023-06-04T00:33:51;16.50;99.90
23010;DHT22;11671;49.990;8.028;2023-06-04T00:36:17;16.40;99.90
23010;DHT22;11671;49.990;8.028;2023-06-04T00:38:42;16.40;99.90
23010;DHT22;11671;49.990;8.028;2023-06-04T00:41:08;16.40;99.90
23010;DHT22;11671;49.990;8.028;2023-06-04T00:43:34;16.40;99.90
23010;DHT22;11671;49.990;8.028;2023-06-04T00:46:01;16.30;99.90
23010;DHT22;11671;49.990;8.028;2023-06-04T00:48:28;16.30;99.90
23010;DHT22;11671;49.990;8.028;2023-06-04T00:50:56;16.20;99.90
23010;DHT22;11671;49.990;8.028;2023-06-04T00:53:24;16.20;99.90
23010;DHT22;11671;49.990;8.028;2023-06-04T00:55:50;16.10;99.90
23010;DHT22;11671;49.990;8.028;2023-06-04T00:58:16;16.10;99.90
23010;DHT22;11671;49.990;8.028;2023-06-04T01:00:44;16.10;99.90
23010;DHT22;11671;49.990;8.028;2023-06-04T01:03:18;15.90;99.90
23010;DHT22;11671;49.990;8.028;2023-06-04T01:05:54;15.90;99.90
23010;DHT22;11671;49.990;8.028;2023-06-04T01:08:23;15.90;99.90
23010;DHT22;11671;49.990;8.028;2023-06-04T01:10:55;15.80;99.90
23010;DHT22;11671;49.990;8.028;2023-06-04T01:13:22;15.80;99.90
23010;DHT22;11671;49.990;8.028;2023-06-04T01:15:48;15.80;99.90
23010;DHT22;11671;49.990;8.028;2023-06-04T01:18:17;15.80;99.90
23010;DHT22;11671;49.990;8.028;2023-06-04T01:20:58;15.70;99.90
23010;DHT22;11671;49.990;8.028;2023-06-04T01:26:03;15.60;99.90
23010;DHT22;11671;49.990;8.028;2023-06-04T01:28:30;15.50;99.90
23010;DHT22;11671;49.990;8.028;2023-06-04T01:30:57;15.50;99.90
23010;DHT22;11671;49.990;8.028;2023-06-04T01:33:25;15.40;99.90
23010;DHT22;11671;49.990;8.028;2023-06-04T01:35:51;15.40;99.90
23010;DHT22;11671;49.990;8.028;2023-06-04T01:38:17;15.40;99.90
23010;DHT22;11671;49.990;8.028;2023-06-04T01:40:42;15.30;99.90
23010;DHT22;11671;49.990;8.028;2023-06-04T01:43:08;15.30;99.90
23010;DHT22;11671;49.990;8.028;2023-06-04T01:45:34;15.20;99.90
23010;DHT22;11671;49.990;8.028;2023-06-04T01:48:04;15.20;99.90
23010;DHT22;11671;49.990;8.028;2023-06-04T01:50:31;15.20;99.90
23010;DHT22;11671;49.990;8.028;2023-06-04T01:52:57;15.20;99.90
23010;DHT22;11671;49.990;8.028;2023-06-04T01:55:22;15.20;99.90
23010;DHT22;11671;49.990;8.028;2023-06-04T01:57:50;15.20;99.90
23010;DHT22;11671;49.990;8.028;2023-06-04T02:00:16;15.20;99.90
23010;DHT22;11671;49.990;8.028;2023-06-04T02:02:44;15.20;99.90
23010;DHT22;11671;49.990;8.028;2023-06-04T02:05:13;15.10;99.90
23010;DHT22;11671;49.990;8.028;2023-06-04T02:07:41;15.10;99.90
23010;DHT22;11671;49.990;8.028;2023-06-04T02:12:35;15.10;99.90
23010;DHT22;11671;49.990;8.028;2023-06-04T02:15:01;15.00;99.90
23010;DHT22;11671;49.990;8.028;2023-06-04T02:19:53;14.90;99.90
23010;DHT22;11671;49.990;8.028;2023-06-04T02:22:20;14.90;99.90
23010;DHT22;11671;49.990;8.028;2023-06-04T02:24:46;14.90;99.90
23010;DHT22;11671;49.990;8.028;2023-06-04T02:27:13;15.00;99.90
23010;DHT22;11671;49.990;8.028;2023-06-04T02:29:40;15.00;99.90
23010;DHT22;11671;49.990;8.028;2023-06-04T02:32:08;15.00;99.90
23010;DHT22;11671;49.990;8.028;2023-06-04T02:34:35;14.90;99.90
23010;DHT22;11671;49.990;8.028;2023-06-04T02:37:01;14.90;99.90
23010;DHT22;11671;49.990;8.028;2023-06-04T02:39:27;14.90;99.90
23010;DHT22;11671;49.990;8.028;2023-06-04T02:41:53;14.90;99.90
23010;DHT22;11671;49.990;8.028;2023-06-04T02:44:18;14.90;99.90
23010;DHT22;11671;49.990;8.028;2023-06-04T02:46:44;14.80;99.90
23010;DHT22;11671;49.990;8.028;2023-06-04T02:49:10;14.80;99.90
23010;DHT22;11671;49.990;8.028;2023-06-04T02:51:39;14.80;99.90
23010;DHT22;11671;49.990;8.028;2023-06-04T02:54:05;14.70;99.90
23010;DHT22;11671;49.990;8.028;2023-06-04T02:56:31;14.70;99.90
23010;DHT22;11671;49.990;8.028;2023-06-04T02:58:56;14.70;99.90
23010;DHT22;11671;49.990;8.028;2023-06-04T03:01:26;14.70;99.90
23010;DHT22;11671;49.990;8.028;2023-06-04T03:03:53;14.60;99.90
23010;DHT22;11671;49.990;8.028;2023-06-04T03:06:20;14.60;99.90
23010;DHT22;11671;49.990;8.028;2023-06-04T03:08:50;14.60;99.90
23010;DHT22;11671;49.990;8.028;2023-06-04T03:11:17;14.60;99.90
23010;DHT22;11671;49.990;8.028;2023-06-04T03:13:44;14.60;99.90
23010;DHT22;11671;49.990;8.028;2023-06-04T03:16:10;14.60;99.90
23010;DHT22;11671;49.990;8.028;2023-06-04T03:18:36;14.50;99.90
23010;DHT22;11671;49.990;8.028;2023-06-04T03:21:03;14.40;99.90
23010;DHT22;11671;49.990;8.028;2023-06-04T03:23:28;14.40;99.90
23010;DHT22;11671;49.990;8.028;2023-06-04T03:25:54;14.40;99.90
23010;DHT22;11671;49.990;8.028;2023-06-04T03:28:19;14.40;99.90
23010;DHT22;11671;49.990;8.028;2023-06-04T03:30:45;14.40;99.90
23010;DHT22;11671;49.990;8.028;2023-06-04T03:33:11;14.30;99.90
23010;DHT22;11671;49.990;8.028;2023-06-04T03:35:36;14.40;99.90
23010;DHT22;11671;49.990;8.028;2023-06-04T03:38:02;14.40;99.90
23010;DHT22;11671;49.990;8.028;2023-06-04T03:40:27;14.40;99.90
23010;DHT22;11671;49.990;8.028;2023-06-04T03:42:53;14.40;99.90
23010;DHT22;11671;49.990;8.028;2023-06-04T03:45:18;14.40;99.90
23010;DHT22;11671;49.990;8.028;2023-06-04T03:47:45;14.40;99.90
23010;DHT22;11671;49.990;8.028;2023-06-04T03:50:11;14.40;99.90
23010;DHT22;11671;49.990;8.028;2023-06-04T03:52:36;14.50;99.90
23010;DHT22;11671;49.990;8.028;2023-06-04T03:55:02;14.50;99.90
23010;DHT22;11671;49.990;8.028;2023-06-04T03:57:28;14.50;99.90
23010;DHT22;11671;49.990;8.028;2023-06-04T03:59:54;14.50;99.90
23010;DHT22;11671;49.990;8.028;2023-06-04T04:02:20;14.50;99.90
23010;DHT22;11671;49.990;8.028;2023-06-04T04:04:46;14.50;99.90
23010;DHT22;11671;49.990;8.028;2023-06-04T04:07:11;14.50;99.90
23010;DHT22;11671;49.990;8.028;2023-06-04T04:09:37;14.50;99.90
23010;DHT22;11671;49.990;8.028;2023-06-04T04:12:03;14.50;99.90
23010;DHT22;11671;49.990;8.028;2023-06-04T04:14:29;14.60;99.90
23010;DHT22;11671;49.990;8.028;2023-06-04T04:16:55;14.60;99.90
23010;DHT22;11671;49.990;8.028;2023-06-04T04:19:21;14.60;99.90
23010;DHT22;11671;49.990;8.028;2023-06-04T04:21:47;14.70;99.90
23010;DHT22;11671;49.990;8.028;2023-06-04T04:24:25;14.80;99.90
23010;DHT22;11671;49.990;8.028;2023-06-04T04:26:52;14.80;99.90
23010;DHT22;11671;49.990;8.028;2023-06-04T04:29:19;14.90;99.90
23010;DHT22;11671;49.990;8.028;2023-06-04T04:31:49;15.00;99.90
23010;DHT22;11671;49.990;8.028;2023-06-04T04:34:14;15.10;99.90
23010;DHT22;11671;49.990;8.028;2023-06-04T04:36:40;15.10;99.90
23010;DHT22;11671;49.990;8.028;2023-06-04T04:39:06;15.10;99.90
23010;DHT22;11671;49.990;8.028;2023-06-04T04:41:32;15.20;99.90
23010;DHT22;11671;49.990;8.028;2023-06-04T04:44:04;15.20;99.90
23010;DHT22;11671;49.990;8.028;2023-06-04T04:46:32;15.30;99.90
23010;DHT22;11671;49.990;8.028;2023-06-04T04:48:58;15.50;99.90
23010;DHT22;11671;49.990;8.028;2023-06-04T04:51:23;15.50;99.90
23010;DHT22;11671;49.990;8.028;2023-06-04T04:53:49;15.70;99.90
23010;DHT22;11671;49.990;8.028;2023-06-04T04:56:14;15.80;99.90
23010;DHT22;11671;49.990;8.028;2023-06-04T04:58:40;15.90;99.90
23010;DHT22;11671;49.990;8.028;2023-06-04T05:01:06;16.00;99.90
23010;DHT22;11671;49.990;8.028;2023-06-04T05:03:31;16.10;99.90
23010;DHT22;11671;49.990;8.028;2023-06-04T05:05:57;16.20;99.90
23010;DHT22;11671;49.990;8.028;2023-06-04T05:08:22;16.20;99.90
23010;DHT22;11671;49.990;8.028;2023-06-04T05:10:50;16.20;99.90
23010;DHT22;11671;49.990;8.028;2023-06-04T05:13:15;16.30;99.90
23010;DHT22;11671;49.990;8.028;2023-06-04T05:15:41;16.60;99.90
23010;DHT22;11671;49.990;8.028;2023-06-04T05:18:07;17.20;99.90
23010;DHT22;11671;49.990;8.028;2023-06-04T05:20:33;18.40;99.90
23010;DHT22;11671;49.990;8.028;2023-06-04T05:23:00;19.90;99.90
23010;DHT22;11671;49.990;8.028;2023-06-04T05:25:27;21.40;99.90
23010;DHT22;11671;49.990;8.028;2023-06-04T05:27:55;22.50;99.90
23010;DHT22;11671;49.990;8.028;2023-06-04T05:30:22;23.80;99.90
23010;DHT22;11671;49.990;8.028;2023-06-04T05:32:48;24.80;99.90
23010;DHT22;11671;49.990;8.028;2023-06-04T05:35:16;25.60;95.80
23010;DHT22;11671;49.990;8.028;2023-06-04T05:37:42;26.10;93.70
23010;DHT22;11671;49.990;8.028;2023-06-04T05:40:11;26.80;92.40
23010;DHT22;11671;49.990;8.028;2023-06-04T05:42:37;27.60;89.10
23010;DHT22;11671;49.990;8.028;2023-06-04T05:45:04;28.10;83.60
23010;DHT22;11671;49.990;8.028;2023-06-04T05:47:30;28.30;81.00
23010;DHT22;11671;49.990;8.028;2023-06-04T05:49:56;28.60;79.80
23010;DHT22;11671;49.990;8.028;2023-06-04T05:52:22;29.10;77.90
23010;DHT22;11671;49.990;8.028;2023-06-04T05:54:48;29.30;74.30
23010;DHT22;11671;49.990;8.028;2023-06-04T05:57:14;28.80;72.30
23010;DHT22;11671;49.990;8.028;2023-06-04T05:59:40;28.00;72.00
23010;DHT22;11671;49.990;8.028;2023-06-04T06:02:05;27.50;74.10
23010;DHT22;11671;49.990;8.028;2023-06-04T06:04:31;27.30;73.90
23010;DHT22;11671;49.990;8.028;2023-06-04T06:06:57;27.00;75.00
23010;DHT22;11671;49.990;8.028;2023-06-04T06:09:22;26.90;75.60
23010;DHT22;11671;49.990;8.028;2023-06-04T06:11:48;26.70;75.40
23010;DHT22;11671;49.990;8.028;2023-06-04T06:14:14;26.70;74.90
23010;DHT22;11671;49.990;8.028;2023-06-04T06:16:40;26.50;76.40
23010;DHT22;11671;49.990;8.028;2023-06-04T06:19:06;26.60;76.40
23010;DHT22;11671;49.990;8.028;2023-06-04T06:21:31;26.60;74.60
23010;DHT22;11671;49.990;8.028;2023-06-04T06:23:57;27.10;75.10
23010;DHT22;11671;49.990;8.028;2023-06-04T06:26:23;27.70;74.20
23010;DHT22;11671;49.990;8.028;2023-06-04T06:28:50;28.20;72.50
23010;DHT22;11671;49.990;8.028;2023-06-04T06:31:16;28.50;71.20
23010;DHT22;11671;49.990;8.028;2023-06-04T06:33:41;28.70;71.00
23010;DHT22;11671;49.990;8.028;2023-06-04T06:36:10;28.90;70.00
23010;DHT22;11671;49.990;8.028;2023-06-04T06:38:39;29.20;68.00
23010;DHT22;11671;49.990;8.028;2023-06-04T06:41:05;29.10;67.40
23010;DHT22;11671;49.990;8.028;2023-06-04T06:43:31;29.40;67.40
23010;DHT22;11671;49.990;8.028;2023-06-04T06:45:57;29.50;66.90
23010;DHT22;11671;49.990;8.028;2023-06-04T06:48:23;29.30;66.50
23010;DHT22;11671;49.990;8.028;2023-06-04T06:50:48;29.60;68.50
23010;DHT22;11671;49.990;8.028;2023-06-04T06:53:14;29.10;65.60
23010;DHT22;11671;49.990;8.028;2023-06-04T06:55:40;28.40;65.40
23010;DHT22;11671;49.990;8.028;2023-06-04T06:58:05;28.00;66.30
23010;DHT22;11671;49.990;8.028;2023-06-04T07:00:31;27.90;66.70
23010;DHT22;11671;49.990;8.028;2023-06-04T07:02:57;28.20;66.60
23010;DHT22;11671;49.990;8.028;2023-06-04T07:05:22;28.50;67.70
23010;DHT22;11671;49.990;8.028;2023-06-04T07:07:48;28.80;67.00
23010;DHT22;11671;49.990;8.028;2023-06-04T07:10:14;29.20;69.40
23010;DHT22;11671;49.990;8.028;2023-06-04T07:12:40;29.10;66.60
23010;DHT22;11671;49.990;8.028;2023-06-04T07:15:06;29.10;62.70
23010;DHT22;11671;49.990;8.028;2023-06-04T07:17:33;29.20;66.50
23010;DHT22;11671;49.990;8.028;2023-06-04T07:19:59;29.40;63.50
23010;DHT22;11671;49.990;8.028;2023-06-04T07:22:25;29.20;60.20
23010;DHT22;11671;49.990;8.028;2023-06-04T07:24:51;29.20;63.00
23010;DHT22;11671;49.990;8.028;2023-06-04T07:27:17;29.00;63.00
23010;DHT22;11671;49.990;8.028;2023-06-04T07:29:46;29.20;60.60
23010;DHT22;11671;49.990;8.028;2023-06-04T07:32:12;29.10;61.60
23010;DHT22;11671;49.990;8.028;2023-06-04T07:34:39;28.10;57.60
23010;DHT22;11671;49.990;8.028;2023-06-04T07:37:04;27.60;57.90
23010;DHT22;11671;49.990;8.028;2023-06-04T07:39:30;27.90;63.60
23010;DHT22;11671;49.990;8.028;2023-06-04T07:41:56;28.00;58.80
23010;DHT22;11671;49.990;8.028;2023-06-04T07:44:21;28.30;58.40
23010;DHT22;11671;49.990;8.028;2023-06-04T07:46:47;28.10;59.00
23010;DHT22;11671;49.990;8.028;2023-06-04T07:49:14;28.00;60.20
23010;DHT22;11671;49.990;8.028;2023-06-04T07:51:39;28.10;59.60
23010;DHT22;11671;49.990;8.028;2023-06-04T07:54:05;28.20;57.60
23010;DHT22;11671;49.990;8.028;2023-06-04T07:56:30;28.40;58.40
23010;DHT22;11671;49.990;8.028;2023-06-04T07:58:56;28.00;59.10
23010;DHT22;11671;49.990;8.028;2023-06-04T08:01:22;28.00;58.70
23010;DHT22;11671;49.990;8.028;2023-06-04T08:03:49;28.20;58.70
23010;DHT22;11671;49.990;8.028;2023-06-04T08:06:15;28.00;57.80
23010;DHT22;11671;49.990;8.028;2023-06-04T08:08:44;27.90;60.10
23010;DHT22;11671;49.990;8.028;2023-06-04T08:11:15;28.20;59.40
23010;DHT22;11671;49.990;8.028;2023-06-04T08:13:41;28.40;59.80
23010;DHT22;11671;49.990;8.028;2023-06-04T08:16:08;28.70;58.90
23010;DHT22;11671;49.990;8.028;2023-06-04T08:18:38;28.50;57.80
23010;DHT22;11671;49.990;8.028;2023-06-04T08:21:04;28.50;56.60
23010;DHT22;11671;49.990;8.028;2023-06-04T08:23:29;28.30;56.90
23010;DHT22;11671;49.990;8.028;2023-06-04T08:25:55;28.20;58.50
23010;DHT22;11671;49.990;8.028;2023-06-04T08:28:21;28.40;59.20
23010;DHT22;11671;49.990;8.028;2023-06-04T08:30:47;28.40;57.30
23010;DHT22;11671;49.990;8.028;2023-06-04T08:33:12;28.40;58.50
23010;DHT22;11671;49.990;8.028;2023-06-04T08:35:38;28.30;59.40
23010;DHT22;11671;49.990;8.028;2023-06-04T08:38:04;28.10;59.00
23010;DHT22;11671;49.990;8.028;2023-06-04T08:40:29;27.90;59.60
23010;DHT22;11671;49.990;8.028;2023-06-04T08:42:56;27.90;59.70
23010;DHT22;11671;49.990;8.028;2023-06-04T08:45:25;28.00;60.90
23010;DHT22;11671;49.990;8.028;2023-06-04T08:47:54;28.00;59.30
23010;DHT22;11671;49.990;8.028;2023-06-04T08:50:24;28.00;61.90
23010;DHT22;11671;49.990;8.028;2023-06-04T08:52:55;27.90;58.80
23010;DHT22;11671;49.990;8.028;2023-06-04T08:55:21;27.80;60.70
23010;DHT22;11671;49.990;8.028;2023-06-04T08:57:49;27.50;58.00
23010;DHT22;11671;49.990;8.028;2023-06-04T09:00:16;27.30;59.10
23010;DHT22;11671;49.990;8.028;2023-06-04T09:02:44;27.50;60.50
23010;DHT22;11671;49.990;8.028;2023-06-04T09:05:10;27.90;59.70
23010;DHT22;11671;49.990;8.028;2023-06-04T09:07:45;27.60;60.00
23010;DHT22;11671;49.990;8.028;2023-06-04T09:10:15;27.50;59.00
23010;DHT22;11671;49.990;8.028;2023-06-04T09:12:46;27.30;60.30
23010;DHT22;11671;49.990;8.028;2023-06-04T09:15:12;27.30;59.20
23010;DHT22;11671;49.990;8.028;2023-06-04T09:17:38;27.50;60.10
23010;DHT22;11671;49.990;8.028;2023-06-04T09:20:04;27.50;60.00
23010;DHT22;11671;49.990;8.028;2023-06-04T09:22:37;27.60;59.60
23010;DHT22;11671;49.990;8.028;2023-06-04T09:25:07;26.80;59.30
23010;DHT22;11671;49.990;8.028;2023-06-04T09:27:44;26.50;61.00
23010;DHT22;11671;49.990;8.028;2023-06-04T09:30:09;26.30;60.00
23010;DHT22;11671;49.990;8.028;2023-06-04T09:32:35;26.20;59.40
23010;DHT22;11671;49.990;8.028;2023-06-04T09:35:14;26.50;59.60
23010;DHT22;11671;49.990;8.028;2023-06-04T09:38:01;26.70;60.70
23010;DHT22;11671;49.990;8.028;2023-06-04T09:40:35;26.80;60.60
23010;DHT22;11671;49.990;8.028;2023-06-04T09:43:02;26.60;59.30
23010;DHT22;11671;49.990;8.028;2023-06-04T09:45:32;26.70;59.00
23010;DHT22;11671;49.990;8.028;2023-06-04T09:48:00;26.70;59.70
23010;DHT22;11671;49.990;8.028;2023-06-04T09:50:29;26.70;59.90
23010;DHT22;11671;49.990;8.028;2023-06-04T09:52:55;26.70;61.10
23010;DHT22;11671;49.990;8.028;2023-06-04T09:55:22;26.80;61.20
23010;DHT22;11671;49.990;8.028;2023-06-04T09:57:49;26.60;59.70
23010;DHT22;11671;49.990;8.028;2023-06-04T10:00:22;26.70;60.90
23010;DHT22;11671;49.990;8.028;2023-06-04T10:02:49;26.90;61.20
23010;DHT22;11671;49.990;8.028;2023-06-04T10:05:16;26.80;59.00
23010;DHT22;11671;49.990;8.028;2023-06-04T10:07:46;26.70;59.80
23010;DHT22;11671;49.990;8.028;2023-06-04T10:10:16;26.90;60.40
23010;DHT22;11671;49.990;8.028;2023-06-04T10:12:43;26.70;58.80
23010;DHT22;11671;49.990;8.028;2023-06-04T10:15:12;26.30;57.90
23010;DHT22;11671;49.990;8.028;2023-06-04T10:17:38;26.60;59.10
23010;DHT22;11671;49.990;8.028;2023-06-04T10:20:05;26.30;59.60
23010;DHT22;11671;49.990;8.028;2023-06-04T10:22:34;25.90;59.70
23010;DHT22;11671;49.990;8.028;2023-06-04T10:25:00;26.10;60.90
23010;DHT22;11671;49.990;8.028;2023-06-04T10:27:26;25.90;58.30
23010;DHT22;11671;49.990;8.028;2023-06-04T10:29:53;25.90;58.90
23010;DHT22;11671;49.990;8.028;2023-06-04T10:32:19;25.70;58.40
23010;DHT22;11671;49.990;8.028;2023-06-04T10:34:46;25.80;58.30
23010;DHT22;11671;49.990;8.028;2023-06-04T10:37:22;25.80;60.00
23010;DHT22;11671;49.990;8.028;2023-06-04T10:39:53;25.90;59.40
23010;DHT22;11671;49.990;8.028;2023-06-04T10:42:19;26.00;58.30
23010;DHT22;11671;49.990;8.028;2023-06-04T10:44:50;26.00;58.90
23010;DHT22;11671;49.990;8.028;2023-06-04T10:47:26;26.20;58.90
23010;DHT22;11671;49.990;8.028;2023-06-04T10:49:53;26.30;59.40
23010;DHT22;11671;49.990;8.028;2023-06-04T10:52:20;26.30;58.60
23010;DHT22;11671;49.990;8.028;2023-06-04T10:54:47;26.30;57.60
23010;DHT22;11671;49.990;8.028;2023-06-04T10:57:19;26.60;58.80
23010;DHT22;11671;49.990;8.028;2023-06-04T10:59:58;26.50;58.90
23010;DHT22;11671;49.990;8.028;2023-06-04T11:02:24;26.30;57.90
23010;DHT22;11671;49.990;8.028;2023-06-04T11:07:42;26.30;58.00
23010;DHT22;11671;49.990;8.028;2023-06-04T11:10:15;26.20;58.10
23010;DHT22;11671;49.990;8.028;2023-06-04T11:12:45;26.40;57.90
23010;DHT22;11671;49.990;8.028;2023-06-04T11:15:11;26.60;60.30
23010;DHT22;11671;49.990;8.028;2023-06-04T11:17:37;26.60;58.10
23010;DHT22;11671;49.990;8.028;2023-06-04T11:20:03;26.50;57.90
23010;DHT22;11671;49.990;8.028;2023-06-04T11:22:32;26.30;58.60
23010;DHT22;11671;49.990;8.028;2023-06-04T11:24:59;26.60;59.50
23010;DHT22;11671;49.990;8.028;2023-06-04T11:27:25;26.90;58.60
23010;DHT22;11671;49.990;8.028;2023-06-04T11:29:51;26.90;58.10
23010;DHT22;11671;49.990;8.028;2023-06-04T11:32:21;27.00;57.60
23010;DHT22;11671;49.990;8.028;2023-06-04T11:34:47;26.50;58.50
23010;DHT22;11671;49.990;8.028;2023-06-04T11:37:13;26.50;59.20
23010;DHT22;11671;49.990;8.028;2023-06-04T11:39:39;26.20;58.50
23010;DHT22;11671;49.990;8.028;2023-06-04T11:42:06;26.00;59.20
23010;DHT22;11671;49.990;8.028;2023-06-04T11:44:33;25.90;59.50
23010;DHT22;11671;49.990;8.028;2023-06-04T11:46:59;26.20;59.70
23010;DHT22;11671;49.990;8.028;2023-06-04T11:49:25;26.40;59.20
23010;DHT22;11671;49.990;8.028;2023-06-04T11:51:52;26.70;59.10
23010;DHT22;11671;49.990;8.028;2023-06-04T11:54:20;26.70;58.90
23010;DHT22;11671;49.990;8.028;2023-06-04T11:56:48;26.70;57.60
23010;DHT22;11671;49.990;8.028;2023-06-04T11:59:15;26.60;58.30
23010;DHT22;11671;49.990;8.028;2023-06-04T12:01:46;26.80;59.30
23010;DHT22;11671;49.990;8.028;2023-06-04T12:04:16;26.40;58.60
23010;DHT22;11671;49.990;8.028;2023-06-04T12:06:54;26.50;60.20
23010;DHT22;11671;49.990;8.028;2023-06-04T12:09:26;26.40;60.00
23010;DHT22;11671;49.990;8.028;2023-06-04T12:11:58;26.40;59.20
23010;DHT22;11671;49.990;8.028;2023-06-04T12:14:25;26.50;57.90
23010;DHT22;11671;49.990;8.028;2023-06-04T12:17:01;26.60;57.60
23010;DHT22;11671;49.990;8.028;2023-06-04T12:19:28;26.80;59.40
23010;DHT22;11671;49.990;8.028;2023-06-04T12:22:06;26.90;58.10
23010;DHT22;11671;49.990;8.028;2023-06-04T12:24:33;26.80;58.90
23010;DHT22;11671;49.990;8.028;2023-06-04T12:29:29;26.70;57.10
23010;DHT22;11671;49.990;8.028;2023-06-04T12:32:06;26.60;58.40
23010;DHT22;11671;49.990;8.028;2023-06-04T12:34:40;26.80;59.00
23010;DHT22;11671;49.990;8.028;2023-06-04T12:37:06;27.10;58.70
23010;DHT22;11671;49.990;8.028;2023-06-04T12:39:36;27.10;57.60
23010;DHT22;11671;49.990;8.028;2023-06-04T12:42:11;27.00;57.20
23010;DHT22;11671;49.990;8.028;2023-06-04T12:44:38;27.10;57.70
23010;DHT22;11671;49.990;8.028;2023-06-04T12:47:05;27.20;57.40
23010;DHT22;11671;49.990;8.028;2023-06-04T12:49:30;27.40;57.70
23010;DHT22;11671;49.990;8.028;2023-06-04T12:51:56;27.20;58.20
23010;DHT22;11671;49.990;8.028;2023-06-04T12:54:22;27.00;56.30
23010;DHT22;11671;49.990;8.028;2023-06-04T12:56:48;27.10;57.30
23010;DHT22;11671;49.990;8.028;2023-06-04T12:59:14;27.40;56.90
23010;DHT22;11671;49.990;8.028;2023-06-04T13:01:39;27.40;56.20
23010;DHT22;11671;49.990;8.028;2023-06-04T13:04:06;27.30;55.70
23010;DHT22;11671;49.990;8.028;2023-06-04T13:06:33;27.40;56.60
23010;DHT22;11671;49.990;8.028;2023-06-04T13:09:04;27.40;55.90
23010;DHT22;11671;49.990;8.028;2023-06-04T13:11:38;27.50;54.60
23010;DHT22;11671;49.990;8.028;2023-06-04T13:14:04;27.60;54.80
23010;DHT22;11671;49.990;8.028;2023-06-04T13:16:30;27.60;55.00
23010;DHT22;11671;49.990;8.028;2023-06-04T13:18:55;27.70;55.20
23010;DHT22;11671;49.990;8.028;2023-06-04T13:21:21;28.00;54.90
23010;DHT22;11671;49.990;8.028;2023-06-04T13:23:47;28.10;54.50
23010;DHT22;11671;49.990;8.028;2023-06-04T13:26:12;27.80;53.70
23010;DHT22;11671;49.990;8.028;2023-06-04T13:28:38;27.70;54.90
23010;DHT22;11671;49.990;8.028;2023-06-04T13:31:04;27.70;54.50
23010;DHT22;11671;49.990;8.028;2023-06-04T13:33:30;27.70;54.80
23010;DHT22;11671;49.990;8.028;2023-06-04T13:35:56;27.80;54.40
23010;DHT22;11671;49.990;8.028;2023-06-04T13:38:21;27.80;55.40
23010;DHT22;11671;49.990;8.028;2023-06-04T13:40:47;27.90;55.60
23010;DHT22;11671;49.990;8.028;2023-06-04T13:43:12;27.80;54.60
23010;DHT22;11671;49.990;8.028;2023-06-04T13:45:38;27.80;54.20
23010;DHT22;11671;49.990;8.028;2023-06-04T13:48:05;27.50;54.40
23010;DHT22;11671;49.990;8.028;2023-06-04T13:50:34;27.40;55.60
23010;DHT22;11671;49.990;8.028;2023-06-04T13:53:00;27.30;55.20
23010;DHT22;11671;49.990;8.028;2023-06-04T13:55:26;27.50;55.60
23010;DHT22;11671;49.990;8.028;2023-06-04T13:57:51;27.70;55.80
23010;DHT22;11671;49.990;8.028;2023-06-04T14:00:17;27.90;54.80
23010;DHT22;11671;49.990;8.028;2023-06-04T14:02:43;27.90;55.00
23010;DHT22;11671;49.990;8.028;2023-06-04T14:05:11;27.70;54.20
23010;DHT22;11671;49.990;8.028;2023-06-04T14:07:37;27.50;55.50
23010;DHT22;11671;49.990;8.028;2023-06-04T14:12:54;27.90;54.50
23010;DHT22;11671;49.990;8.028;2023-06-04T14:15:20;28.10;55.30
23010;DHT22;11671;49.990;8.028;2023-06-04T14:17:45;28.00;54.80
23010;DHT22;11671;49.990;8.028;2023-06-04T14:20:12;28.00;55.10
23010;DHT22;11671;49.990;8.028;2023-06-04T14:22:38;28.10;54.60
23010;DHT22;11671;49.990;8.028;2023-06-04T14:25:07;28.00;55.60
23010;DHT22;11671;49.990;8.028;2023-06-04T14:27:34;28.00;54.10
23010;DHT22;11671;49.990;8.028;2023-06-04T14:30:01;28.20;55.60
23010;DHT22;11671;49.990;8.028;2023-06-04T14:32:27;28.30;53.30
23010;DHT22;11671;49.990;8.028;2023-06-04T14:34:53;28.10;51.70
23010;DHT22;11671;49.990;8.028;2023-06-04T14:37:18;28.00;53.20
23010;DHT22;11671;49.990;8.028;2023-06-04T14:39:46;28.00;53.60
23010;DHT22;11671;49.990;8.028;2023-06-04T14:42:12;28.00;53.50
23010;DHT22;11671;49.990;8.028;2023-06-04T14:44:38;28.10;53.70
23010;DHT22;11671;49.990;8.028;2023-06-04T14:47:04;28.10;53.60
23010;DHT22;11671;49.990;8.028;2023-06-04T14:49:30;28.10;53.50
23010;DHT22;11671;49.990;8.028;2023-06-04T14:51:55;28.10;53.70
23010;DHT22;11671;49.990;8.028;2023-06-04T14:54:21;28.20;54.40
23010;DHT22;11671;49.990;8.028;2023-06-04T14:56:47;28.20;54.40
23010;DHT22;11671;49.990;8.028;2023-06-04T14:59:12;28.40;55.10
23010;DHT22;11671;49.990;8.028;2023-06-04T15:01:38;28.40;54.10
23010;DHT22;11671;49.990;8.028;2023-06-04T15:04:05;28.20;53.30
23010;DHT22;11671;49.990;8.028;2023-06-04T15:06:31;28.10;54.80
23010;DHT22;11671;49.990;8.028;2023-06-04T15:08:57;28.20;53.50
23010;DHT22;11671;49.990;8.028;2023-06-04T15:11:22;28.20;54.40
23010;DHT22;11671;49.990;8.028;2023-06-04T15:13:48;28.20;54.40
23010;DHT22;11671;49.990;8.028;2023-06-04T15:16:13;28.20;54.60
23010;DHT22;11671;49.990;8.028;2023-06-04T15:18:39;28.00;53.30
23010;DHT22;11671;49.990;8.028;2023-06-04T15:21:05;27.90;53.90
23010;DHT22;11671;49.990;8.028;2023-06-04T15:23:30;27.90;53.20
23010;DHT22;11671;49.990;8.028;2023-06-04T15:25:56;27.90;53.90
23010;DHT22;11671;49.990;8.028;2023-06-04T15:28:21;27.90;53.30
23010;DHT22;11671;49.990;8.028;2023-06-04T15:30:47;28.00;54.80
23010;DHT22;11671;49.990;8.028;2023-06-04T15:33:13;27.90;54.40
23010;DHT22;11671;49.990;8.028;2023-06-04T15:35:38;27.70;54.10
23010;DHT22;11671;49.990;8.028;2023-06-04T15:38:04;27.50;54.60
23010;DHT22;11671;49.990;8.028;2023-06-04T15:40:29;27.50;54.50
23010;DHT22;11671;49.990;8.028;2023-06-04T15:42:55;27.60;55.50
23010;DHT22;11671;49.990;8.028;2023-06-04T15:45:21;27.70;54.40